createdAt,value
2022-08-22T00:00:43.789Z,37.50
2022-08-22T00:03:03.717Z,37.00
2022-08-22T00:03:06.868Z,36.00
2022-08-22T00:03:11.474Z,36.00
2022-08-22T00:03:11.845Z,35.50
2022-08-22T00:03:39.924Z,38.25
2022-08-22T00:06:14.468Z,36.50
2022-08-22T00:09:05.814Z,37.00
2022-08-22T00:11:56.183Z,37.00
2022-08-22T00:14:46.603Z,37.00
2022-08-22T00:17:27.169Z,38.00
2022-08-22T00:20:08.177Z,36.50
2022-08-22T00:22:56.672Z,38.00
2022-08-22T00:25:48.162Z,37.00
2022-08-22T00:28:49.958Z,38.00
2022-08-22T00:31:31.735Z,36.00
2022-08-22T00:34:08.197Z,37.00
2022-08-22T00:36:47.687Z,38.50
2022-08-22T00:39:36.949Z,37.00
2022-08-22T00:42:29.538Z,37.50
2022-08-22T00:44:59.115Z,37.00
2022-08-22T00:47:54.197Z,37.00
2022-08-22T00:50:26.792Z,36.00
2022-08-22T00:53:08.985Z,37.00
2022-08-22T00:55:53.632Z,37.00
2022-08-22T00:58:50.750Z,37.00
2022-08-22T01:01:26.481Z,38.00
2022-08-22T01:04:13.894Z,36.50
2022-08-22T01:07:09.941Z,36.00
2022-08-22T01:09:45.850Z,36.00
2022-08-22T01:12:28.121Z,39.25
2022-08-22T01:14:59.715Z,37.25
2022-08-22T01:18:01.843Z,37.00
2022-08-22T01:20:52.632Z,39.00
2022-08-22T01:23:43.771Z,40.25
2022-08-22T01:26:32.401Z,39.00
2022-08-22T01:29:28.319Z,41.00
2022-08-22T01:32:14.033Z,38.00
2022-08-22T01:34:47.160Z,38.00
2022-08-22T01:37:43.471Z,37.00
2022-08-22T01:40:54.201Z,36.50
2022-08-22T01:43:58.646Z,36.50
2022-08-22T01:46:34.316Z,36.00
2022-08-22T01:49:25.460Z,36.50
2022-08-22T01:52:11.078Z,36.00
2022-08-22T01:55:01.759Z,36.00
2022-08-22T01:57:28.888Z,36.00
2022-08-22T02:00:00.519Z,36.00
2022-08-22T02:02:45.963Z,38.00
2022-08-22T02:05:24.323Z,37.00
2022-08-22T02:08:32.716Z,37.00
2022-08-22T02:11:09.793Z,38.00
2022-08-22T02:13:49.583Z,37.00
2022-08-22T02:16:41.834Z,37.00
2022-08-22T02:19:26.629Z,38.00
2022-08-22T02:22:29.636Z,37.00
2022-08-22T02:25:13.613Z,36.00
2022-08-22T02:27:52.334Z,36.00
2022-08-22T02:30:41.429Z,36.00
2022-08-22T02:33:15.650Z,39.00
2022-08-22T02:35:55.007Z,37.00
2022-08-22T02:38:48.124Z,36.50
2022-08-22T02:41:36.530Z,38.50
2022-08-22T02:44:31.492Z,38.50
2022-08-22T02:47:26.235Z,37.25
2022-08-22T02:50:04.731Z,38.75
2022-08-22T02:52:51.314Z,37.00
2022-08-22T02:55:42.391Z,38.50
2022-08-22T02:58:09.205Z,37.00
2022-08-22T03:01:02.495Z,40.00
2022-08-22T03:03:36.180Z,38.00
2022-08-22T03:06:07.651Z,40.25
2022-08-22T03:09:20.492Z,40.00
2022-08-22T03:12:04.509Z,38.00
2022-08-22T03:14:41.322Z,40.50
2022-08-22T03:17:17.034Z,39.00
2022-08-22T03:19:59.514Z,40.00
2022-08-22T03:22:44.255Z,40.00
2022-08-22T03:25:34.999Z,44.00
2022-08-22T03:28:18.188Z,45.00
2022-08-22T03:31:11.300Z,44.00
2022-08-22T03:34:01.100Z,45.00
2022-08-22T03:36:29.724Z,44.00
2022-08-22T03:39:07.279Z,44.50
2022-08-22T03:41:47.550Z,43.75
2022-08-22T03:44:36.589Z,45.75
2022-08-22T03:47:09.418Z,48.50
2022-08-22T03:49:42.432Z,46.00
2022-08-22T03:52:18.184Z,44.00
2022-08-22T03:55:08.133Z,44.00
2022-08-22T03:58:27.330Z,45.00
2022-08-22T04:01:34.093Z,44.00
2022-08-22T04:04:22.697Z,43.00
2022-08-22T04:06:56.363Z,44.50
2022-08-22T04:09:54.782Z,45.00
2022-08-22T04:12:49.771Z,44.00
2022-08-22T04:15:54.084Z,44.50
2022-08-22T04:18:47.953Z,45.00
2022-08-22T04:21:42.120Z,45.00
2022-08-22T04:24:30.582Z,45.00
2022-08-22T04:27:29.763Z,45.00
2022-08-22T04:30:06.385Z,44.25
2022-08-22T04:32:40.703Z,44.50
2022-08-22T04:35:28.447Z,44.00
2022-08-22T04:38:12.462Z,45.00
2022-08-22T04:40:47.417Z,45.00
2022-08-22T04:43:23.293Z,45.00
2022-08-22T04:46:03.156Z,45.00
2022-08-22T04:48:39.005Z,44.00
2022-08-22T04:51:33.499Z,44.00
2022-08-22T04:54:12.658Z,47.00
2022-08-22T04:56:51.739Z,46.00
2022-08-22T04:59:19.705Z,45.00
2022-08-22T05:01:52.605Z,45.00
2022-08-22T05:04:24.042Z,45.00
2022-08-22T05:07:19.264Z,47.00
2022-08-22T05:10:21.509Z,46.00
2022-08-22T05:12:55.939Z,46.50
2022-08-22T05:15:33.154Z,46.00
2022-08-22T05:18:14.057Z,44.50
2022-08-22T05:20:47.133Z,45.00
2022-08-22T05:23:25.181Z,47.00
2022-08-22T05:25:57.389Z,46.50
2022-08-22T05:28:35.429Z,44.00
2022-08-22T05:31:09.896Z,46.00
2022-08-22T05:34:04.039Z,45.00
2022-08-22T05:37:08.281Z,46.25
2022-08-22T05:39:38.477Z,45.00
2022-08-22T05:42:12.112Z,44.00
2022-08-22T05:44:39.592Z,45.00
2022-08-22T05:47:23.837Z,45.00
2022-08-22T05:50:13.163Z,45.00
2022-08-22T05:52:57.275Z,44.00
2022-08-22T05:55:51.907Z,47.00
2022-08-22T05:58:39.712Z,45.00
2022-08-22T06:01:18.705Z,47.00
2022-08-22T06:04:01.516Z,46.00
2022-08-22T06:06:32.435Z,44.50
2022-08-22T06:09:23.909Z,45.00
2022-08-22T06:11:58.577Z,44.00
2022-08-22T06:14:32.925Z,44.00
2022-08-22T06:17:11.763Z,43.00
2022-08-22T06:19:44.104Z,44.00
2022-08-22T06:22:27.208Z,45.00
2022-08-22T06:24:57.514Z,44.00
2022-08-22T06:27:31.291Z,44.00
2022-08-22T06:30:03.230Z,43.50
2022-08-22T06:32:59.865Z,45.00
2022-08-22T06:35:43.198Z,45.00
2022-08-22T06:38:10.592Z,45.00
2022-08-22T06:40:41.531Z,45.00
2022-08-22T06:43:10.812Z,46.00
2022-08-22T06:45:39.585Z,45.75
2022-08-22T06:48:09.318Z,46.00
2022-08-22T06:50:40.678Z,46.00
2022-08-22T06:53:45.950Z,45.50
2022-08-22T06:56:25.484Z,45.00
2022-08-22T06:59:02.709Z,46.00
2022-08-22T07:01:48.570Z,44.50
2022-08-22T07:04:16.218Z,45.00
2022-08-22T07:06:46.139Z,47.00
2022-08-22T07:09:35.549Z,44.00
2022-08-22T07:12:11.046Z,44.00
2022-08-22T07:14:49.327Z,44.00
2022-08-22T07:17:25.808Z,44.00
2022-08-22T07:20:02.001Z,44.00
2022-08-22T07:22:32.853Z,46.00
2022-08-22T07:25:05.806Z,45.00
2022-08-22T07:28:03.817Z,45.50
2022-08-22T07:30:54.057Z,46.25
2022-08-22T07:33:44.074Z,47.00
2022-08-22T07:36:31.990Z,47.25
2022-08-22T07:39:27.025Z,46.00
2022-08-22T07:42:30.373Z,46.00
2022-08-22T07:45:26.726Z,45.00
2022-08-22T07:48:11.537Z,45.00
2022-08-22T07:50:53.926Z,43.75
2022-08-22T07:53:45.455Z,43.00
2022-08-22T07:56:17.793Z,45.00
2022-08-22T07:58:47.873Z,50.00
2022-08-22T08:01:21.806Z,47.25
2022-08-22T08:03:55.737Z,47.00
2022-08-22T08:06:24.919Z,46.00
2022-08-22T08:08:53.053Z,46.00
2022-08-22T08:11:25.005Z,44.50
2022-08-22T08:14:00.925Z,45.00
2022-08-22T08:16:33.443Z,44.50
2022-08-22T08:19:02.685Z,44.00
2022-08-22T08:21:51.058Z,43.00
2022-08-22T08:24:24.144Z,44.00
2022-08-22T08:26:59.185Z,43.00
2022-08-22T08:29:26.283Z,43.00
2022-08-22T08:31:53.287Z,44.25
2022-08-22T08:34:26.034Z,44.50
2022-08-22T08:37:16.691Z,45.00
2022-08-22T08:39:48.604Z,45.00
2022-08-22T08:42:26.930Z,45.00
2022-08-22T08:45:18.738Z,46.00
2022-08-22T08:48:01.303Z,46.00
2022-08-22T08:50:53.353Z,45.00
2022-08-22T08:53:48.532Z,45.00
2022-08-22T08:56:25.506Z,45.50
2022-08-22T08:59:10.120Z,47.00
2022-08-22T09:01:49.245Z,47.00
2022-08-22T09:04:50.293Z,48.00
2022-08-22T09:07:58.945Z,46.00
2022-08-22T09:10:36.590Z,46.75
2022-08-22T09:13:11.489Z,46.00
2022-08-22T09:16:27.364Z,45.00
2022-08-22T09:19:28.329Z,44.50
2022-08-22T09:22:50.220Z,45.00
2022-08-22T09:25:33.704Z,45.00
2022-08-22T09:28:28.354Z,44.00
2022-08-22T09:31:33.067Z,45.00
2022-08-22T09:37:45.766Z,44.00
2022-08-22T09:43:05.796Z,45.50
2022-08-22T09:46:20.153Z,46.00
2022-08-22T09:49:30.264Z,46.00
2022-08-22T09:52:15.239Z,45.00
2022-08-22T09:55:08.528Z,44.75
2022-08-22T09:57:56.513Z,44.50
2022-08-22T10:00:33.220Z,44.00
2022-08-22T10:03:12.364Z,44.50
2022-08-22T10:05:59.359Z,44.00
2022-08-22T10:08:46.002Z,45.00
2022-08-22T10:11:32.284Z,45.00
2022-08-22T10:14:04.950Z,46.00
2022-08-22T10:16:43.301Z,45.50
2022-08-22T10:19:47.782Z,46.00
2022-08-22T10:22:29.792Z,45.00
2022-08-22T10:25:06.303Z,45.00
2022-08-22T10:27:45.661Z,46.00
2022-08-22T10:30:38.785Z,44.25
2022-08-22T10:33:32.294Z,44.50
2022-08-22T10:36:12.013Z,45.50
2022-08-22T10:38:51.049Z,45.00
2022-08-22T10:41:26.918Z,45.00
2022-08-22T10:44:17.231Z,45.00
2022-08-22T10:46:50.519Z,45.00
2022-08-22T10:49:32.097Z,46.00
2022-08-22T10:52:15.703Z,47.00
2022-08-22T10:54:48.129Z,46.00
2022-08-22T10:57:35.300Z,45.00
2022-08-22T11:00:34.101Z,45.00
2022-08-22T11:03:18.713Z,45.00
2022-08-22T11:05:51.322Z,45.50
2022-08-22T11:08:35.441Z,45.00
2022-08-22T11:11:11.420Z,45.00
2022-08-22T11:13:54.599Z,47.00
2022-08-22T11:16:59.161Z,46.00
2022-08-22T11:20:04.554Z,45.25
2022-08-22T11:22:55.878Z,45.00
2022-08-22T11:25:53.674Z,45.00
2022-08-22T11:28:35.511Z,44.50
2022-08-22T11:31:40.059Z,45.00
2022-08-22T11:34:21.302Z,45.50
2022-08-22T11:37:31.679Z,45.00
2022-08-22T11:40:13.484Z,46.25
2022-08-22T11:43:03.134Z,47.00
2022-08-22T11:45:40.501Z,47.00
2022-08-22T11:48:22.261Z,46.75
2022-08-22T11:51:00.402Z,46.00
2022-08-22T11:53:45.089Z,46.00
2022-08-22T11:56:12.794Z,46.00
2022-08-22T11:58:42.488Z,46.00
2022-08-22T12:01:18.642Z,47.00
2022-08-22T12:04:23.943Z,45.75
2022-08-22T12:07:04.856Z,45.50
2022-08-22T12:09:38.078Z,45.00
2022-08-22T12:12:05.016Z,47.00
2022-08-22T12:14:54.713Z,47.00
2022-08-22T12:17:55.714Z,45.00
2022-08-22T12:20:45.544Z,47.00
2022-08-22T12:23:48.799Z,46.00
2022-08-22T12:26:28.654Z,45.50
2022-08-22T12:28:58.470Z,46.00
2022-08-22T12:31:56.603Z,47.00
2022-08-22T12:34:57.248Z,47.00
2022-08-22T12:37:52.805Z,45.00
2022-08-22T12:40:48.755Z,46.25
2022-08-22T12:43:42.540Z,47.00
2022-08-22T12:46:14.937Z,45.00
2022-08-22T12:49:07.999Z,47.00
2022-08-22T12:51:38.099Z,46.00
2022-08-22T12:54:44.002Z,45.25
2022-08-22T12:57:33.306Z,45.00
2022-08-22T13:00:26.886Z,46.25
2022-08-22T13:03:02.148Z,45.25
2022-08-22T13:05:40.638Z,46.00
2022-08-22T13:08:15.869Z,45.00
2022-08-22T13:11:00.874Z,44.00
2022-08-22T13:13:36.942Z,43.00
2022-08-22T13:16:13.133Z,43.00
2022-08-22T13:18:53.471Z,45.25
2022-08-22T13:21:31.667Z,47.00
2022-08-22T13:24:16.878Z,47.00
2022-08-22T13:27:00.316Z,46.00
2022-08-22T13:29:42.701Z,46.00
2022-08-22T13:32:31.557Z,45.00
2022-08-22T13:35:00.735Z,45.00
2022-08-22T13:37:50.195Z,46.00
2022-08-22T13:40:32.580Z,45.00
2022-08-22T13:43:10.441Z,44.00
2022-08-22T13:45:40.703Z,45.75
2022-08-22T13:48:15.428Z,46.00
2022-08-22T13:51:04.040Z,46.00
2022-08-22T13:53:38.377Z,46.00
2022-08-22T13:56:29.793Z,47.00
2022-08-22T13:59:00.340Z,46.00
2022-08-22T14:01:35.945Z,46.00
2022-08-22T14:04:36.221Z,45.00
2022-08-22T14:07:03.690Z,46.00
2022-08-22T14:09:54.233Z,45.25
2022-08-22T14:12:28.698Z,48.00
2022-08-22T14:15:08.216Z,47.00
2022-08-22T14:17:43.478Z,46.50
2022-08-22T14:20:32.642Z,48.00
2022-08-22T14:23:09.137Z,47.00
2022-08-22T14:25:42.606Z,46.00
2022-08-22T14:28:28.592Z,47.00
2022-08-22T14:31:13.875Z,47.00
2022-08-22T14:33:59.729Z,46.00
2022-08-22T14:36:46.921Z,46.75
2022-08-22T14:39:29.412Z,46.00
2022-08-22T14:42:05.571Z,46.00
2022-08-22T14:44:40.691Z,47.00
2022-08-22T14:47:54.157Z,46.00
2022-08-22T14:50:29.436Z,45.50
2022-08-22T14:53:26.366Z,47.75
2022-08-22T14:56:24.993Z,47.00
2022-08-22T14:59:02.305Z,48.00
2022-08-22T15:01:57.375Z,47.00
2022-08-22T15:04:47.136Z,46.50
2022-08-22T15:07:26.914Z,47.00
2022-08-22T15:10:11.842Z,45.00
2022-08-22T15:13:05.875Z,45.00
2022-08-22T15:15:53.506Z,45.00
2022-08-22T15:18:28.109Z,47.00
2022-08-22T15:21:11.354Z,45.50
2022-08-22T15:23:46.809Z,45.50
2022-08-22T15:26:25.878Z,47.00
2022-08-22T15:29:16.718Z,45.00
2022-08-22T15:31:46.774Z,46.00
2022-08-22T15:34:46.294Z,45.00
2022-08-22T15:37:16.197Z,46.00
2022-08-22T15:40:07.472Z,47.50
2022-08-22T15:42:44.080Z,47.50
2022-08-22T15:45:38.587Z,49.00
2022-08-22T15:48:24.140Z,48.50
2022-08-22T15:51:09.452Z,48.00
2022-08-22T15:53:45.376Z,46.00
2022-08-22T15:56:12.264Z,47.00
2022-08-22T15:58:48.744Z,48.00
2022-08-22T16:01:20.834Z,47.00
2022-08-22T16:04:02.871Z,48.00
2022-08-22T16:06:47.603Z,47.00
2022-08-22T16:09:44.718Z,48.25
2022-08-22T16:12:28.703Z,49.00
2022-08-22T16:14:55.894Z,48.00
2022-08-22T16:17:28.721Z,46.00
2022-08-22T16:20:15.864Z,46.00
2022-08-22T16:23:00.449Z,46.00
2022-08-22T16:25:45.476Z,45.00
2022-08-22T16:28:54.408Z,46.75
2022-08-22T16:31:46.017Z,45.75
2022-08-22T16:34:43.620Z,46.75
2022-08-22T16:37:13.317Z,47.00
2022-08-22T16:39:58.606Z,48.00
2022-08-22T16:42:38.108Z,46.75
2022-08-22T16:45:29.677Z,45.75
2022-08-22T16:47:58.580Z,47.00
2022-08-22T16:50:32.229Z,46.75
2022-08-22T16:53:30.326Z,47.00
2022-08-22T16:56:20.852Z,47.00
2022-08-22T16:59:22.812Z,47.25
2022-08-22T17:07:32.669Z,46.75
2022-08-22T17:19:23.167Z,45.00
2022-08-22T17:22:43.242Z,48.00
2022-08-22T17:25:32.119Z,47.00
2022-08-22T17:32:19.161Z,45.00
2022-08-22T17:35:13.543Z,46.50
2022-08-22T17:41:19.166Z,45.75
2022-08-22T17:44:10.634Z,44.00
2022-08-22T17:47:08.059Z,45.00
2022-08-22T17:50:42.459Z,45.75
2022-08-22T17:53:05.645Z,46.00
2022-08-22T17:59:20.977Z,45.00
2022-08-22T18:02:18.863Z,46.00
2022-08-22T18:11:52.555Z,45.00
2022-08-22T18:15:06.007Z,44.25
2022-08-22T18:17:50.225Z,44.75
2022-08-22T18:20:57.708Z,45.75
2022-08-22T18:23:40.603Z,46.00
2022-08-22T18:26:18.543Z,46.00
2022-08-22T18:29:16.595Z,46.00
2022-08-22T18:32:12.990Z,44.00
2022-08-22T18:34:51.804Z,46.00
2022-08-22T18:37:30.598Z,45.00
2022-08-22T18:40:11.793Z,46.00
2022-08-22T18:42:59.449Z,45.75
2022-08-22T18:45:48.210Z,44.00
2022-08-22T18:48:27.633Z,44.25
2022-08-22T18:51:19.327Z,47.00
2022-08-22T18:53:59.210Z,46.50
2022-08-22T18:56:31.737Z,44.50
2022-08-22T18:59:07.656Z,45.50
2022-08-22T19:02:01.040Z,46.75
2022-08-22T19:04:49.398Z,45.00
2022-08-22T19:07:27.135Z,44.25
2022-08-22T19:10:25.414Z,45.00
2022-08-22T19:13:17.536Z,45.50
2022-08-22T19:16:21.695Z,47.00
2022-08-22T19:18:58.303Z,46.00
2022-08-22T19:21:29.580Z,46.00
2022-08-22T19:23:56.681Z,49.00
2022-08-22T19:26:35.314Z,47.00
2022-08-22T19:29:25.441Z,46.00
2022-08-22T19:31:58.929Z,47.00
2022-08-22T19:34:26.014Z,46.50
2022-08-22T19:37:30.740Z,46.75
2022-08-22T19:40:01.964Z,45.50
2022-08-22T19:42:32.317Z,46.00
2022-08-22T19:45:04.718Z,45.00
2022-08-22T19:47:39.780Z,45.25
2022-08-22T19:50:15.680Z,45.50
2022-08-22T19:52:45.270Z,47.00
2022-08-22T19:55:27.241Z,45.00
2022-08-22T19:58:15.310Z,44.25
2022-08-22T20:00:58.005Z,46.00
2022-08-22T20:03:59.183Z,45.00
2022-08-22T20:06:55.047Z,45.50
2022-08-22T20:09:43.313Z,48.00
2022-08-22T20:12:19.166Z,45.00
2022-08-22T20:14:50.553Z,44.25
2022-08-22T20:17:24.065Z,44.50
2022-08-22T20:22:55.426Z,45.00
2022-08-22T20:25:43.006Z,45.00
2022-08-22T20:28:24.898Z,45.75
2022-08-22T20:30:58.796Z,45.00
2022-08-22T20:33:31.368Z,46.75
2022-08-22T20:36:06.569Z,46.25
2022-08-22T20:38:55.804Z,45.00
2022-08-22T20:41:52.283Z,46.00
2022-08-22T20:44:25.127Z,46.00
2022-08-22T20:47:05.326Z,46.00
2022-08-22T20:49:41.873Z,46.50
2022-08-22T20:52:30.911Z,45.00
2022-08-22T20:55:21.395Z,45.00
2022-08-22T20:57:53.051Z,45.00
2022-08-22T21:00:28.060Z,46.00
2022-08-22T21:02:57.804Z,45.00
2022-08-22T21:05:33.253Z,45.00
2022-08-22T21:08:20.875Z,46.00
2022-08-22T21:10:57.945Z,45.00
2022-08-22T21:13:36.291Z,45.50
2022-08-22T21:16:16.862Z,44.00
2022-08-22T21:18:49.618Z,44.00
2022-08-22T21:21:22.324Z,44.25
2022-08-22T21:24:10.286Z,47.25
2022-08-22T21:26:46.009Z,45.50
2022-08-22T21:29:19.892Z,45.75
2022-08-22T21:31:54.172Z,46.00
2022-08-22T21:34:35.241Z,43.00
2022-08-22T21:37:35.158Z,44.00
2022-08-22T21:40:16.741Z,43.00
2022-08-22T21:42:58.347Z,44.00
2022-08-22T21:45:51.585Z,44.00
2022-08-22T21:48:30.388Z,43.50
2022-08-22T21:51:40.307Z,44.00
2022-08-22T21:54:25.550Z,44.50
2022-08-22T21:56:58.694Z,44.75
2022-08-22T21:59:51.625Z,44.50
2022-08-22T22:02:36.798Z,45.00
2022-08-22T22:05:11.326Z,43.50
2022-08-22T22:07:41.156Z,46.50
2022-08-22T22:10:12.065Z,44.00
2022-08-22T22:12:43.803Z,44.00
2022-08-22T22:15:16.264Z,44.00
2022-08-22T22:17:43.191Z,43.00
2022-08-22T22:20:11.874Z,43.00
2022-08-22T22:22:43.177Z,42.75
2022-08-22T22:25:39.651Z,42.50
2022-08-22T22:28:07.142Z,43.50
2022-08-22T22:30:34.231Z,44.75
2022-08-22T22:33:01.045Z,44.00
2022-08-22T22:35:28.048Z,45.75
2022-08-22T22:38:03.746Z,44.75
2022-08-22T22:40:30.883Z,43.50
2022-08-22T22:42:57.943Z,45.00
2022-08-22T22:45:25.221Z,43.00
2022-08-22T22:47:52.034Z,43.50
2022-08-22T22:50:18.923Z,43.00
2022-08-22T22:52:45.795Z,45.00
2022-08-22T22:55:12.692Z,44.00
2022-08-22T22:57:58.633Z,43.25
2022-08-22T23:00:29.176Z,43.00
2022-08-22T23:03:02.343Z,42.50
2022-08-22T23:05:30.682Z,45.00
2022-08-22T23:08:00.507Z,43.00
2022-08-22T23:10:29.206Z,43.00
2022-08-22T23:12:56.188Z,43.00
2022-08-22T23:15:23.310Z,42.50
2022-08-22T23:17:51.301Z,43.50
2022-08-22T23:20:18.231Z,44.00
2022-08-22T23:22:46.113Z,43.00
2022-08-22T23:25:13.507Z,43.00
2022-08-22T23:27:42.607Z,43.50
2022-08-22T23:30:10.835Z,43.00
2022-08-22T23:32:47.959Z,42.50
2022-08-22T23:35:15.031Z,42.25
2022-08-22T23:37:44.185Z,43.00
2022-08-22T23:40:11.622Z,42.00
2022-08-22T23:42:40.549Z,42.25
2022-08-22T23:45:07.639Z,43.00
2022-08-22T23:47:37.612Z,45.00
2022-08-22T23:50:06.215Z,43.50
2022-08-22T23:52:35.779Z,42.00
2022-08-22T23:55:03.509Z,42.00
2022-08-22T23:57:30.364Z,42.00
2022-08-22T23:59:58.476Z,43.00
